Terminal Aerodrome Forecast
Issued by NWS

Home | Current Version | Previous Version | Text Only | Print | Product List | Glossary On
Versions: 1 2 3 4 5 6 7 8 9 10 11 12 13 14 15 16 17 18 19 20 21 22 23 24 25 26
000
FTUS44 KOUN 311128
TAFHBR
TAF
KHBR 311128Z 3112/0112 03014KT P6SM BKN006 OVC020
      TEMPO 3112/3114 3SM -DZ BKN005
     FM311400 03013KT P6SM BKN015
     FM311900 03013KT P6SM SCT040=

USA.gov is the U.S. government's official web portal to all federal, state and local government web resources and services.